sensor_id;sensor_type;location;lat;lon;timestamp;temperature;humidity
66586;SHT30;53444;45.822;16.092;2023-04-28T00:01:59;10.84;74.39
66586;SHT30;53444;45.822;16.092;2023-04-28T00:04:27;10.77;74.97
66586;SHT30;53444;45.822;16.092;2023-04-28T00:06:54;10.87;74.62
66586;SHT30;53444;45.822;16.092;2023-04-28T00:09:20;10.90;74.68
66586;SHT30;53444;45.822;16.092;2023-04-28T00:11:47;10.88;74.81
66586;SHT30;53444;45.822;16.092;2023-04-28T00:14:14;10.85;74.96
66586;SHT30;53444;45.822;16.092;2023-04-28T00:16:40;10.84;74.58
66586;SHT30;53444;45.822;16.092;2023-04-28T00:19:07;10.67;75.02
66586;SHT30;53444;45.822;16.092;2023-04-28T00:21:35;10.46;75.55
66586;SHT30;53444;45.822;16.092;2023-04-28T00:24:02;10.36;75.58
66586;SHT30;53444;45.822;16.092;2023-04-28T00:26:28;10.43;75.03
66586;SHT30;53444;45.822;16.092;2023-04-28T00:28:55;10.52;74.54
66586;SHT30;53444;45.822;16.092;2023-04-28T00:31:22;10.37;74.86
66586;SHT30;53444;45.822;16.092;2023-04-28T00:33:48;10.47;74.52
66586;SHT30;53444;45.822;16.092;2023-04-28T00:36:15;10.46;74.17
66586;SHT30;53444;45.822;16.092;2023-04-28T00:38:43;10.50;73.92
66586;SHT30;53444;45.822;16.092;2023-04-28T00:41:09;10.23;73.81
66586;SHT30;53444;45.822;16.092;2023-04-28T00:43:44;10.30;73.99
66586;SHT30;53444;45.822;16.092;2023-04-28T00:46:14;10.19;74.31
66586;SHT30;53444;45.822;16.092;2023-04-28T00:48:43;10.13;74.72
66586;SHT30;53444;45.822;16.092;2023-04-28T00:51:09;10.09;75.01
66586;SHT30;53444;45.822;16.092;2023-04-28T00:53:36;9.73;75.91
66586;SHT30;53444;45.822;16.092;2023-04-28T00:56:05;9.81;75.44
66586;SHT30;53444;45.822;16.092;2023-04-28T00:58:33;10.05;74.92
66586;SHT30;53444;45.822;16.092;2023-04-28T01:01:02;10.02;74.76
66586;SHT30;53444;45.822;16.092;2023-04-28T01:03:29;9.98;74.84
66586;SHT30;53444;45.822;16.092;2023-04-28T01:05:56;9.96;74.63
66586;SHT30;53444;45.822;16.092;2023-04-28T01:08:23;9.98;74.66
66586;SHT30;53444;45.822;16.092;2023-04-28T01:10:49;10.01;74.37
66586;SHT30;53444;45.822;16.092;2023-04-28T01:13:17;9.78;74.90
66586;SHT30;53444;45.822;16.092;2023-04-28T01:15:44;9.85;74.66
66586;SHT30;53444;45.822;16.092;2023-04-28T01:18:11;9.92;74.66
66586;SHT30;53444;45.822;16.092;2023-04-28T01:20:37;9.95;74.60
66586;SHT30;53444;45.822;16.092;2023-04-28T01:23:04;9.99;74.31
66586;SHT30;53444;45.822;16.092;2023-04-28T01:25:32;9.98;74.36
66586;SHT30;53444;45.822;16.092;2023-04-28T01:27:59;9.75;75.16
66586;SHT30;53444;45.822;16.092;2023-04-28T01:30:25;9.78;74.76
66586;SHT30;53444;45.822;16.092;2023-04-28T01:32:52;9.82;74.85
66586;SHT30;53444;45.822;16.092;2023-04-28T01:35:18;9.81;74.80
66586;SHT30;53444;45.822;16.092;2023-04-28T01:37:45;9.79;74.81
66586;SHT30;53444;45.822;16.092;2023-04-28T01:40:12;9.70;75.16
66586;SHT30;53444;45.822;16.092;2023-04-28T01:42:40;9.77;74.84
66586;SHT30;53444;45.822;16.092;2023-04-28T01:45:08;9.62;74.98
66586;SHT30;53444;45.822;16.092;2023-04-28T01:47:35;9.50;75.51
66586;SHT30;53444;45.822;16.092;2023-04-28T01:50:01;9.40;75.55
66586;SHT30;53444;45.822;16.092;2023-04-28T01:52:28;9.31;76.06
66586;SHT30;53444;45.822;16.092;2023-04-28T01:54:54;9.40;75.93
66586;SHT30;53444;45.822;16.092;2023-04-28T01:57:21;9.23;76.85
66586;SHT30;53444;45.822;16.092;2023-04-28T01:59:49;9.40;76.34
66586;SHT30;53444;45.822;16.092;2023-04-28T02:02:16;9.38;76.33
66586;SHT30;53444;45.822;16.092;2023-04-28T02:04:42;9.34;76.63
66586;SHT30;53444;45.822;16.092;2023-04-28T02:07:09;9.40;76.66
66586;SHT30;53444;45.822;16.092;2023-04-28T02:09:35;9.35;76.73
66586;SHT30;53444;45.822;16.092;2023-04-28T02:12:03;9.09;77.71
66586;SHT30;53444;45.822;16.092;2023-04-28T02:14:29;9.06;78.23
66586;SHT30;53444;45.822;16.092;2023-04-28T02:16:58;9.23;77.48
66586;SHT30;53444;45.822;16.092;2023-04-28T02:19:27;9.24;77.35
66586;SHT30;53444;45.822;16.092;2023-04-28T02:21:53;9.22;77.65
66586;SHT30;53444;45.822;16.092;2023-04-28T02:24:20;9.09;78.11
66586;SHT30;53444;45.822;16.092;2023-04-28T02:26:46;9.10;78.21
66586;SHT30;53444;45.822;16.092;2023-04-28T02:29:13;9.10;78.36
66586;SHT30;53444;45.822;16.092;2023-04-28T02:31:40;9.02;78.73
66586;SHT30;53444;45.822;16.092;2023-04-28T02:34:08;9.06;78.43
66586;SHT30;53444;45.822;16.092;2023-04-28T02:36:34;9.12;78.56
66586;SHT30;53444;45.822;16.092;2023-04-28T02:39:01;9.09;78.49
66586;SHT30;53444;45.822;16.092;2023-04-28T02:41:27;9.12;77.99
66586;SHT30;53444;45.822;16.092;2023-04-28T02:43:55;9.10;78.24
66586;SHT30;53444;45.822;16.092;2023-04-28T02:46:21;9.19;77.93
66586;SHT30;53444;45.822;16.092;2023-04-28T02:48:48;9.14;77.43
66586;SHT30;53444;45.822;16.092;2023-04-28T02:51:16;9.12;77.21
66586;SHT30;53444;45.822;16.092;2023-04-28T02:53:43;8.99;77.37
66586;SHT30;53444;45.822;16.092;2023-04-28T02:56:09;9.07;77.22
66586;SHT30;53444;45.822;16.092;2023-04-28T02:58:36;9.22;76.35
66586;SHT30;53444;45.822;16.092;2023-04-28T03:01:03;9.19;75.96
66586;SHT30;53444;45.822;16.092;2023-04-28T03:03:29;9.19;75.87
66586;SHT30;53444;45.822;16.092;2023-04-28T03:05:56;9.27;75.87
66586;SHT30;53444;45.822;16.092;2023-04-28T03:08:24;9.26;75.89
66586;SHT30;53444;45.822;16.092;2023-04-28T03:10:51;9.33;75.81
66586;SHT30;53444;45.822;16.092;2023-04-28T03:13:17;9.26;75.98
66586;SHT30;53444;45.822;16.092;2023-04-28T03:15:44;9.26;76.08
66586;SHT30;53444;45.822;16.092;2023-04-28T03:18:11;9.26;75.95
66586;SHT30;53444;45.822;16.092;2023-04-28T03:20:37;9.26;76.10
66586;SHT30;53444;45.822;16.092;2023-04-28T03:23:04;9.26;76.43
66586;SHT30;53444;45.822;16.092;2023-04-28T03:25:33;9.20;76.93
66586;SHT30;53444;45.822;16.092;2023-04-28T03:27:59;9.19;77.11
66586;SHT30;53444;45.822;16.092;2023-04-28T03:30:26;9.22;77.04
66586;SHT30;53444;45.822;16.092;2023-04-28T03:32:52;9.20;77.43
66586;SHT30;53444;45.822;16.092;2023-04-28T03:35:19;9.17;77.91
66586;SHT30;53444;45.822;16.092;2023-04-28T03:37:45;9.13;78.30
66586;SHT30;53444;45.822;16.092;2023-04-28T03:40:12;9.03;78.55
66586;SHT30;53444;45.822;16.092;2023-04-28T03:42:40;9.03;78.45
66586;SHT30;53444;45.822;16.092;2023-04-28T03:45:08;9.09;78.22
66586;SHT30;53444;45.822;16.092;2023-04-28T03:47:35;9.00;78.28
66586;SHT30;53444;45.822;16.092;2023-04-28T03:50:01;9.06;78.00
66586;SHT30;53444;45.822;16.092;2023-04-28T03:52:28;8.97;78.13
66586;SHT30;53444;45.822;16.092;2023-04-28T03:54:55;9.00;77.96
66586;SHT30;53444;45.822;16.092;2023-04-28T03:57:21;8.92;78.19
66586;SHT30;53444;45.822;16.092;2023-04-28T03:59:49;8.87;78.34
66586;SHT30;53444;45.822;16.092;2023-04-28T04:02:16;8.89;78.19
66586;SHT30;53444;45.822;16.092;2023-04-28T04:04:43;8.92;78.37
66586;SHT30;53444;45.822;16.092;2023-04-28T04:07:09;8.94;78.22
66586;SHT30;53444;45.822;16.092;2023-04-28T04:09:36;8.99;78.26
66586;SHT30;53444;45.822;16.092;2023-04-28T04:12:03;8.97;77.42
66586;SHT30;53444;45.822;16.092;2023-04-28T04:14:30;9.10;77.00
66586;SHT30;53444;45.822;16.092;2023-04-28T04:16:59;9.10;76.43
66586;SHT30;53444;45.822;16.092;2023-04-28T04:19:25;8.92;77.18
66586;SHT30;53444;45.822;16.092;2023-04-28T04:21:52;9.07;76.79
66586;SHT30;53444;45.822;16.092;2023-04-28T04:24:18;9.17;76.36
66586;SHT30;53444;45.822;16.092;2023-04-28T04:26:45;9.23;76.39
66586;SHT30;53444;45.822;16.092;2023-04-28T04:29:12;9.17;76.41
66586;SHT30;53444;45.822;16.092;2023-04-28T04:31:38;9.14;76.69
66586;SHT30;53444;45.822;16.092;2023-04-28T04:34:06;9.20;76.63
66586;SHT30;53444;45.822;16.092;2023-04-28T04:36:33;9.34;76.33
66586;SHT30;53444;45.822;16.092;2023-04-28T04:39:00;9.40;76.34
66586;SHT30;53444;45.822;16.092;2023-04-28T04:41:26;9.47;76.11
66586;SHT30;53444;45.822;16.092;2023-04-28T04:43:53;9.48;76.21
66586;SHT30;53444;45.822;16.092;2023-04-28T04:46:19;9.57;76.24
66586;SHT30;53444;45.822;16.092;2023-04-28T04:48:46;9.71;75.95
66586;SHT30;53444;45.822;16.092;2023-04-28T04:51:14;9.68;76.09
66586;SHT30;53444;45.822;16.092;2023-04-28T04:53:40;9.78;76.41
66586;SHT30;53444;45.822;16.092;2023-04-28T04:56:07;9.92;76.14
66586;SHT30;53444;45.822;16.092;2023-04-28T04:58:34;10.08;75.81
66586;SHT30;53444;45.822;16.092;2023-04-28T05:01:01;10.19;75.48
66586;SHT30;53444;45.822;16.092;2023-04-28T05:03:28;10.32;75.10
66586;SHT30;53444;45.822;16.092;2023-04-28T05:05:54;10.56;73.63
66586;SHT30;53444;45.822;16.092;2023-04-28T05:08:22;10.73;73.31
66586;SHT30;53444;45.822;16.092;2023-04-28T05:10:49;10.74;73.20
66586;SHT30;53444;45.822;16.092;2023-04-28T05:13:15;10.91;72.57
66586;SHT30;53444;45.822;16.092;2023-04-28T05:15:42;10.87;72.45
66586;SHT30;53444;45.822;16.092;2023-04-28T05:18:09;10.90;71.97
66586;SHT30;53444;45.822;16.092;2023-04-28T05:20:38;11.03;71.85
66586;SHT30;53444;45.822;16.092;2023-04-28T05:23:04;11.18;71.45
66586;SHT30;53444;45.822;16.092;2023-04-28T05:25:32;11.24;70.57
66586;SHT30;53444;45.822;16.092;2023-04-28T05:27:59;11.39;70.21
66586;SHT30;53444;45.822;16.092;2023-04-28T05:30:29;11.35;69.66
66586;SHT30;53444;45.822;16.092;2023-04-28T05:32:56;11.38;69.78
66586;SHT30;53444;45.822;16.092;2023-04-28T05:35:22;11.42;69.77
66586;SHT30;53444;45.822;16.092;2023-04-28T05:37:49;11.32;69.93
66586;SHT30;53444;45.822;16.092;2023-04-28T05:40:16;11.43;69.62
66586;SHT30;53444;45.822;16.092;2023-04-28T05:42:44;11.68;68.50
66586;SHT30;53444;45.822;16.092;2023-04-28T05:45:11;11.59;69.36
66586;SHT30;53444;45.822;16.092;2023-04-28T05:47:37;11.66;68.17
66586;SHT30;53444;45.822;16.092;2023-04-28T05:50:05;11.69;68.18
66586;SHT30;53444;45.822;16.092;2023-04-28T05:52:32;11.69;67.92
66586;SHT30;53444;45.822;16.092;2023-04-28T05:54:58;11.73;67.99
66586;SHT30;53444;45.822;16.092;2023-04-28T05:57:25;11.86;66.96
66586;SHT30;53444;45.822;16.092;2023-04-28T05:59:53;11.99;66.54
66586;SHT30;53444;45.822;16.092;2023-04-28T06:02:19;12.06;66.87
66586;SHT30;53444;45.822;16.092;2023-04-28T06:04:46;12.03;67.39
66586;SHT30;53444;45.822;16.092;2023-04-28T06:07:13;12.06;67.47
66586;SHT30;53444;45.822;16.092;2023-04-28T06:09:40;11.99;67.26
66586;SHT30;53444;45.822;16.092;2023-04-28T06:12:06;12.06;67.59
66586;SHT30;53444;45.822;16.092;2023-04-28T06:14:33;12.16;67.57
66586;SHT30;53444;45.822;16.092;2023-04-28T06:17:02;11.97;67.50
66586;SHT30;53444;45.822;16.092;2023-04-28T06:19:28;12.17;67.24
66586;SHT30;53444;45.822;16.092;2023-04-28T06:21:55;12.45;66.67
66586;SHT30;53444;45.822;16.092;2023-04-28T06:24:24;12.09;67.30
66586;SHT30;53444;45.822;16.092;2023-04-28T06:26:51;12.06;67.93
66586;SHT30;53444;45.822;16.092;2023-04-28T06:29:19;12.36;67.53
66586;SHT30;53444;45.822;16.092;2023-04-28T06:31:47;12.34;67.04
66586;SHT30;53444;45.822;16.092;2023-04-28T06:34:15;12.41;67.75
66586;SHT30;53444;45.822;16.092;2023-04-28T06:36:42;12.58;66.35
66586;SHT30;53444;45.822;16.092;2023-04-28T06:39:08;12.78;65.56
66586;SHT30;53444;45.822;16.092;2023-04-28T06:41:35;12.88;65.53
66586;SHT30;53444;45.822;16.092;2023-04-28T06:44:02;12.92;65.73
66586;SHT30;53444;45.822;16.092;2023-04-28T06:46:29;12.95;65.63
66586;SHT30;53444;45.822;16.092;2023-04-28T06:48:55;13.05;66.26
66586;SHT30;53444;45.822;16.092;2023-04-28T06:51:23;13.05;66.09
66586;SHT30;53444;45.822;16.092;2023-04-28T06:53:51;13.20;65.36
66586;SHT30;53444;45.822;16.092;2023-04-28T06:56:17;13.39;65.42
66586;SHT30;53444;45.822;16.092;2023-04-28T06:58:44;13.39;64.21
66586;SHT30;53444;45.822;16.092;2023-04-28T07:01:11;13.38;64.76
66586;SHT30;53444;45.822;16.092;2023-04-28T07:03:38;13.50;65.06
66586;SHT30;53444;45.822;16.092;2023-04-28T07:06:05;13.60;64.72
66586;SHT30;53444;45.822;16.092;2023-04-28T07:08:33;13.70;64.49
66586;SHT30;53444;45.822;16.092;2023-04-28T07:11:00;13.09;64.86
66586;SHT30;53444;45.822;16.092;2023-04-28T07:13:28;13.43;64.69
66586;SHT30;53444;45.822;16.092;2023-04-28T07:15:55;13.66;64.27
66586;SHT30;53444;45.822;16.092;2023-04-28T07:18:22;13.53;63.99
66586;SHT30;53444;45.822;16.092;2023-04-28T07:20:48;13.69;64.73
66586;SHT30;53444;45.822;16.092;2023-04-28T07:23:15;13.90;64.88
66586;SHT30;53444;45.822;16.092;2023-04-28T07:25:43;14.04;64.50
66586;SHT30;53444;45.822;16.092;2023-04-28T07:28:10;13.97;64.69
66586;SHT30;53444;45.822;16.092;2023-04-28T07:30:36;14.05;65.01
66586;SHT30;53444;45.822;16.092;2023-04-28T07:33:03;14.25;64.08
66586;SHT30;53444;45.822;16.092;2023-04-28T07:35:30;14.18;62.42
66586;SHT30;53444;45.822;16.092;2023-04-28T07:37:56;13.67;63.68
66586;SHT30;53444;45.822;16.092;2023-04-28T07:40:23;14.07;65.12
66586;SHT30;53444;45.822;16.092;2023-04-28T07:42:51;14.18;64.29
66586;SHT30;53444;45.822;16.092;2023-04-28T07:45:18;14.39;63.74
66586;SHT30;53444;45.822;16.092;2023-04-28T07:47:45;14.44;62.96
66586;SHT30;53444;45.822;16.092;2023-04-28T07:50:12;14.65;63.41
66586;SHT30;53444;45.822;16.092;2023-04-28T07:52:38;14.73;62.44
66586;SHT30;53444;45.822;16.092;2023-04-28T07:55:05;14.35;62.91
66586;SHT30;53444;45.822;16.092;2023-04-28T07:57:32;14.48;63.82
66586;SHT30;53444;45.822;16.092;2023-04-28T08:00:00;14.54;62.66
66586;SHT30;53444;45.822;16.092;2023-04-28T08:02:27;14.72;61.69
66586;SHT30;53444;45.822;16.092;2023-04-28T08:04:53;14.95;60.76
66586;SHT30;53444;45.822;16.092;2023-04-28T08:07:20;15.14;61.02
66586;SHT30;53444;45.822;16.092;2023-04-28T08:09:46;15.22;60.21
66586;SHT30;53444;45.822;16.092;2023-04-28T08:12:13;15.31;59.95
66586;SHT30;53444;45.822;16.092;2023-04-28T08:14:40;15.33;59.16
66586;SHT30;53444;45.822;16.092;2023-04-28T08:17:08;15.58;59.19
66586;SHT30;53444;45.822;16.092;2023-04-28T08:19:35;15.57;59.84
66586;SHT30;53444;45.822;16.092;2023-04-28T08:22:01;15.75;58.44
66586;SHT30;53444;45.822;16.092;2023-04-28T08:24:30;15.77;57.75
66586;SHT30;53444;45.822;16.092;2023-04-28T08:26:59;15.84;58.12
66586;SHT30;53444;45.822;16.092;2023-04-28T08:29:27;15.84;59.06
66586;SHT30;53444;45.822;16.092;2023-04-28T08:31:53;16.05;58.82
66586;SHT30;53444;45.822;16.092;2023-04-28T08:34:21;15.62;57.36
66586;SHT30;53444;45.822;16.092;2023-04-28T08:36:48;16.06;59.74
66586;SHT30;53444;45.822;16.092;2023-04-28T08:39:15;15.95;57.67
66586;SHT30;53444;45.822;16.092;2023-04-28T08:41:42;15.98;57.71
66586;SHT30;53444;45.822;16.092;2023-04-28T08:44:09;15.81;57.73
66586;SHT30;53444;45.822;16.092;2023-04-28T08:46:39;15.69;59.82
66586;SHT30;53444;45.822;16.092;2023-04-28T08:49:06;16.13;58.18
66586;SHT30;53444;45.822;16.092;2023-04-28T08:51:44;16.53;58.49
66586;SHT30;53444;45.822;16.092;2023-04-28T08:54:13;16.71;56.88
66586;SHT30;53444;45.822;16.092;2023-04-28T08:56:40;16.74;56.38
66586;SHT30;53444;45.822;16.092;2023-04-28T08:59:09;16.90;56.64
66586;SHT30;53444;45.822;16.092;2023-04-28T09:01:36;17.27;55.96
66586;SHT30;53444;45.822;16.092;2023-04-28T09:04:03;17.32;55.64
66586;SHT30;53444;45.822;16.092;2023-04-28T09:06:32;17.58;55.36
66586;SHT30;53444;45.822;16.092;2023-04-28T09:09:18;17.62;55.49
66586;SHT30;53444;45.822;16.092;2023-04-28T09:11:56;17.08;55.23
66586;SHT30;53444;45.822;16.092;2023-04-28T09:14:23;16.81;56.29
66586;SHT30;53444;45.822;16.092;2023-04-28T09:16:51;17.14;56.20
66586;SHT30;53444;45.822;16.092;2023-04-28T09:19:18;17.41;55.93
66586;SHT30;53444;45.822;16.092;2023-04-28T09:21:46;17.72;54.90
66586;SHT30;53444;45.822;16.092;2023-04-28T09:24:27;17.83;55.19
66586;SHT30;53444;45.822;16.092;2023-04-28T09:26:53;17.99;54.53
66586;SHT30;53444;45.822;16.092;2023-04-28T09:29:20;18.18;55.11
66586;SHT30;53444;45.822;16.092;2023-04-28T09:31:47;18.30;54.28
66586;SHT30;53444;45.822;16.092;2023-04-28T09:34:14;17.78;53.74
66586;SHT30;53444;45.822;16.092;2023-04-28T09:36:40;17.15;55.33
66586;SHT30;53444;45.822;16.092;2023-04-28T09:39:07;17.45;55.20
66586;SHT30;53444;45.822;16.092;2023-04-28T09:41:36;17.28;55.38
66586;SHT30;53444;45.822;16.092;2023-04-28T09:44:11;17.24;55.03
66586;SHT30;53444;45.822;16.092;2023-04-28T09:46:38;17.59;54.34
66586;SHT30;53444;45.822;16.092;2023-04-28T09:49:04;17.48;53.98
66586;SHT30;53444;45.822;16.092;2023-04-28T09:51:31;17.45;55.45
66586;SHT30;53444;45.822;16.092;2023-04-28T09:53:59;17.32;55.21
66586;SHT30;53444;45.822;16.092;2023-04-28T09:56:27;17.45;53.48
66586;SHT30;53444;45.822;16.092;2023-04-28T09:58:57;17.62;52.63
66586;SHT30;53444;45.822;16.092;2023-04-28T10:01:24;17.52;53.75
66586;SHT30;53444;45.822;16.092;2023-04-28T10:03:53;17.65;54.25
66586;SHT30;53444;45.822;16.092;2023-04-28T10:06:21;18.03;53.92
66586;SHT30;53444;45.822;16.092;2023-04-28T10:08:50;18.29;53.04
66586;SHT30;53444;45.822;16.092;2023-04-28T10:11:17;17.62;53.85
66586;SHT30;53444;45.822;16.092;2023-04-28T10:13:45;17.41;53.78
66586;SHT30;53444;45.822;16.092;2023-04-28T10:16:13;17.90;53.84
66586;SHT30;53444;45.822;16.092;2023-04-28T10:18:40;18.18;52.23
66586;SHT30;53444;45.822;16.092;2023-04-28T10:21:09;18.43;51.95
66586;SHT30;53444;45.822;16.092;2023-04-28T10:23:59;18.52;52.96
66586;SHT30;53444;45.822;16.092;2023-04-28T10:26:54;18.37;51.88
66586;SHT30;53444;45.822;16.092;2023-04-28T10:29:24;18.54;52.92
66586;SHT30;53444;45.822;16.092;2023-04-28T10:32:16;18.67;52.19
66586;SHT30;53444;45.822;16.092;2023-04-28T10:34:43;18.89;52.25
66586;SHT30;53444;45.822;16.092;2023-04-28T10:37:09;19.02;52.29
66586;SHT30;53444;45.822;16.092;2023-04-28T10:39:39;19.08;52.28
66586;SHT30;53444;45.822;16.092;2023-04-28T10:45:58;19.18;51.42
66586;SHT30;53444;45.822;16.092;2023-04-28T10:51:34;19.64;50.37
66586;SHT30;53444;45.822;16.092;2023-04-28T10:54:15;20.01;49.50
66586;SHT30;53444;45.822;16.092;2023-04-28T10:57:14;19.80;48.52
66586;SHT30;53444;45.822;16.092;2023-04-28T10:59:41;19.39;49.53
66586;SHT30;53444;45.822;16.092;2023-04-28T11:05:18;20.07;51.20
66586;SHT30;53444;45.822;16.092;2023-04-28T11:11:18;20.32;50.93
66586;SHT30;53444;45.822;16.092;2023-04-28T11:13:45;20.15;50.19
66586;SHT30;53444;45.822;16.092;2023-04-28T11:16:21;19.62;50.79
66586;SHT30;53444;45.822;16.092;2023-04-28T11:18:58;19.94;49.96
66586;SHT30;53444;45.822;16.092;2023-04-28T11:21:29;19.90;50.23
66586;SHT30;53444;45.822;16.092;2023-04-28T11:23:56;19.78;50.34
66586;SHT30;53444;45.822;16.092;2023-04-28T11:26:24;19.11;51.84
66586;SHT30;53444;45.822;16.092;2023-04-28T11:28:53;19.30;51.79
66586;SHT30;53444;45.822;16.092;2023-04-28T11:31:21;19.60;52.86
66586;SHT30;53444;45.822;16.092;2023-04-28T11:33:55;19.42;52.34
66586;SHT30;53444;45.822;16.092;2023-04-28T11:36:27;19.12;52.94
66586;SHT30;53444;45.822;16.092;2023-04-28T11:38:56;19.37;53.01
66586;SHT30;53444;45.822;16.092;2023-04-28T11:41:24;19.29;52.72
66586;SHT30;53444;45.822;16.092;2023-04-28T11:43:51;19.40;52.80
66586;SHT30;53444;45.822;16.092;2023-04-28T11:46:19;19.57;52.67
66586;SHT30;53444;45.822;16.092;2023-04-28T11:48:46;19.63;52.33
66586;SHT30;53444;45.822;16.092;2023-04-28T11:51:29;19.69;53.93
66586;SHT30;53444;45.822;16.092;2023-04-28T11:53:56;19.98;51.71
66586;SHT30;53444;45.822;16.092;2023-04-28T11:56:25;20.07;51.07
66586;SHT30;53444;45.822;16.092;2023-04-28T11:59:03;20.11;51.75
66586;SHT30;53444;45.822;16.092;2023-04-28T12:01:31;20.39;51.75
66586;SHT30;53444;45.822;16.092;2023-04-28T12:03:57;20.41;52.48
66586;SHT30;53444;45.822;16.092;2023-04-28T12:06:24;20.24;51.51
66586;SHT30;53444;45.822;16.092;2023-04-28T12:08:52;20.34;51.27
66586;SHT30;53444;45.822;16.092;2023-04-28T12:11:18;20.56;51.42
66586;SHT30;53444;45.822;16.092;2023-04-28T12:14:07;20.71;50.60
66586;SHT30;53444;45.822;16.092;2023-04-28T12:16:39;20.73;49.33
66586;SHT30;53444;45.822;16.092;2023-04-28T12:19:09;20.95;49.12
66586;SHT30;53444;45.822;16.092;2023-04-28T12:21:37;21.19;49.70
66586;SHT30;53444;45.822;16.092;2023-04-28T12:24:18;21.62;49.34
66586;SHT30;53444;45.822;16.092;2023-04-28T12:26:45;21.73;48.27
66586;SHT30;53444;45.822;16.092;2023-04-28T12:29:35;22.02;48.53
66586;SHT30;53444;45.822;16.092;2023-04-28T12:32:04;21.87;46.86
66586;SHT30;53444;45.822;16.092;2023-04-28T12:34:31;21.23;49.23
66586;SHT30;53444;45.822;16.092;2023-04-28T12:36:58;20.85;50.16
66586;SHT30;53444;45.822;16.092;2023-04-28T12:39:24;20.72;49.67
66586;SHT30;53444;45.822;16.092;2023-04-28T12:41:51;20.71;48.73
66586;SHT30;53444;45.822;16.092;2023-04-28T12:44:18;20.97;49.90
66586;SHT30;53444;45.822;16.092;2023-04-28T12:46:47;21.20;49.95
66586;SHT30;53444;45.822;16.092;2023-04-28T12:49:13;21.17;49.25
66586;SHT30;53444;45.822;16.092;2023-04-28T12:51:40;21.20;48.95
66586;SHT30;53444;45.822;16.092;2023-04-28T12:54:07;21.20;49.32
66586;SHT30;53444;45.822;16.092;2023-04-28T12:56:33;21.06;48.59
66586;SHT30;53444;45.822;16.092;2023-04-28T12:59:00;20.85;49.81
66586;SHT30;53444;45.822;16.092;2023-04-28T13:01:28;20.27;51.02
66586;SHT30;53444;45.822;16.092;2023-04-28T13:03:56;20.35;50.94
66586;SHT30;53444;45.822;16.092;2023-04-28T13:06:23;20.31;51.29
66586;SHT30;53444;45.822;16.092;2023-04-28T13:08:49;20.42;52.54
66586;SHT30;53444;45.822;16.092;2023-04-28T13:11:16;20.51;50.18
66586;SHT30;53444;45.822;16.092;2023-04-28T13:13:42;20.95;49.87
66586;SHT30;53444;45.822;16.092;2023-04-28T13:16:09;20.20;50.38
66586;SHT30;53444;45.822;16.092;2023-04-28T13:18:36;20.34;53.12
66586;SHT30;53444;45.822;16.092;2023-04-28T13:21:04;20.41;51.70
66586;SHT30;53444;45.822;16.092;2023-04-28T13:23:31;20.59;51.76
66586;SHT30;53444;45.822;16.092;2023-04-28T13:25:58;20.41;49.87
66586;SHT30;53444;45.822;16.092;2023-04-28T13:28:25;20.08;50.54
66586;SHT30;53444;45.822;16.092;2023-04-28T13:30:51;20.42;50.13
66586;SHT30;53444;45.822;16.092;2023-04-28T13:33:18;20.65;50.22
66586;SHT30;53444;45.822;16.092;2023-04-28T13:35:45;20.53;49.93
66586;SHT30;53444;45.822;16.092;2023-04-28T13:38:13;20.46;50.17
66586;SHT30;53444;45.822;16.092;2023-04-28T13:40:40;20.24;50.52
66586;SHT30;53444;45.822;16.092;2023-04-28T13:43:07;20.44;51.31
66586;SHT30;53444;45.822;16.092;2023-04-28T13:45:33;20.62;50.39
66586;SHT30;53444;45.822;16.092;2023-04-28T13:48:00;20.36;51.14
66586;SHT30;53444;45.822;16.092;2023-04-28T13:50:27;20.18;51.93
66586;SHT30;53444;45.822;16.092;2023-04-28T13:52:54;20.17;52.80
66586;SHT30;53444;45.822;16.092;2023-04-28T13:55:22;19.95;51.57
66586;SHT30;53444;45.822;16.092;2023-04-28T13:57:52;19.66;53.45
66586;SHT30;53444;45.822;16.092;2023-04-28T14:00:19;19.43;53.36
66586;SHT30;53444;45.822;16.092;2023-04-28T14:02:45;19.29;53.60
66586;SHT30;53444;45.822;16.092;2023-04-28T14:05:14;19.27;53.85
66586;SHT30;53444;45.822;16.092;2023-04-28T14:07:41;19.23;54.59
66586;SHT30;53444;45.822;16.092;2023-04-28T14:10:08;19.18;54.84
66586;SHT30;53444;45.822;16.092;2023-04-28T14:12:37;19.19;56.26
66586;SHT30;53444;45.822;16.092;2023-04-28T14:15:04;19.11;56.69
66586;SHT30;53444;45.822;16.092;2023-04-28T14:17:31;18.98;57.93
66586;SHT30;53444;45.822;16.092;2023-04-28T14:19:59;18.78;58.38
66586;SHT30;53444;45.822;16.092;2023-04-28T14:22:25;18.52;59.84
66586;SHT30;53444;45.822;16.092;2023-04-28T14:24:52;18.50;56.38
66586;SHT30;53444;45.822;16.092;2023-04-28T14:27:19;18.43;58.92
66586;SHT30;53444;45.822;16.092;2023-04-28T14:29:47;18.43;59.63
66586;SHT30;53444;45.822;16.092;2023-04-28T14:32:14;18.54;61.90
66586;SHT30;53444;45.822;16.092;2023-04-28T14:34:45;18.64;61.93
66586;SHT30;53444;45.822;16.092;2023-04-28T14:37:12;18.69;64.58
66586;SHT30;53444;45.822;16.092;2023-04-28T14:39:38;18.75;62.95
66586;SHT30;53444;45.822;16.092;2023-04-28T14:42:05;18.54;65.29
66586;SHT30;53444;45.822;16.092;2023-04-28T14:44:33;18.75;64.95
66586;SHT30;53444;45.822;16.092;2023-04-28T14:47:01;19.02;65.68
66586;SHT30;53444;45.822;16.092;2023-04-28T14:49:28;19.16;65.36
66586;SHT30;53444;45.822;16.092;2023-04-28T14:51:55;18.99;63.00
66586;SHT30;53444;45.822;16.092;2023-04-28T14:54:22;18.51;62.42
66586;SHT30;53444;45.822;16.092;2023-04-28T14:56:48;18.79;64.14
66586;SHT30;53444;45.822;16.092;2023-04-28T14:59:15;19.13;62.30
66586;SHT30;53444;45.822;16.092;2023-04-28T15:01:43;19.35;62.38
66586;SHT30;53444;45.822;16.092;2023-04-28T15:04:11;19.59;61.96
66586;SHT30;53444;45.822;16.092;2023-04-28T15:06:38;19.56;63.10
66586;SHT30;53444;45.822;16.092;2023-04-28T15:09:04;19.46;60.48
66586;SHT30;53444;45.822;16.092;2023-04-28T15:11:31;19.39;59.68
66586;SHT30;53444;45.822;16.092;2023-04-28T15:13:57;19.30;59.67
66586;SHT30;53444;45.822;16.092;2023-04-28T15:16:24;19.12;61.04
66586;SHT30;53444;45.822;16.092;2023-04-28T15:18:51;19.13;61.70
66586;SHT30;53444;45.822;16.092;2023-04-28T15:21:19;19.09;62.35
66586;SHT30;53444;45.822;16.092;2023-04-28T15:23:45;18.88;58.42
66586;SHT30;53444;45.822;16.092;2023-04-28T15:26:12;18.92;61.56
66586;SHT30;53444;45.822;16.092;2023-04-28T15:28:39;18.85;60.98
66586;SHT30;53444;45.822;16.092;2023-04-28T15:31:06;18.57;59.89
66586;SHT30;53444;45.822;16.092;2023-04-28T15:33:32;18.51;58.40
66586;SHT30;53444;45.822;16.092;2023-04-28T15:35:59;18.37;57.52
66586;SHT30;53444;45.822;16.092;2023-04-28T15:38:27;18.18;58.37